Terminal Aerodrome Forecast
Issued by NWS

Home | Current Version | Previous Version | Text Only | Print | Product List | Glossary On
Versions: 1 2 3 4 5 6 7 8 9 10 11 12 13 14
000
FTUS41 KBGM 022334
TAFRME
TAF
KRME 022334Z 0300/0324 11005KT P6SM SCT250
     FM031600 23009KT P6SM SCT080 PROB30 0320/0324 5SM TSRA
      OVC035CB=

USA.gov is the U.S. government's official web portal to all federal, state and local government web resources and services.